Time;durP1;ratioP1;P1;durP2;ratioP2;P2;SDS_P1;SDS_P2;PMS_P1;PMS_P2;Temp;Humidity;BMP_temperature;BMP_pressure;BME280_temperature;BME280_humidity;BME280_pressure;Samples;Min_cycle;Max_cycle;Signal;HPM_P1;HPM_P2
2022/08/22 00:01:38;;;;;;;2.83;1.53;;;19.20;99.90;;;;;;5055409;28;20714;-66
2022/08/22 00:04:31;;;;;;;4.17;2.30;;;19.20;99.90;;;;;;5062071;28;20216;-69
2022/08/22 00:07:28;;;;;;;3.60;1.70;;;19.10;99.90;;;;;;5056007;28;20694;-69
2022/08/22 00:10:05;;;;;;;5.57;1.50;;;19.10;99.90;;;;;;5061597;28;20190;-69
2022/08/22 00:12:41;;;;;;;3.13;1.50;;;19.20;99.90;;;;;;5063199;28;20263;-68
2022/08/22 00:15:14;;;;;;;3.03;1.50;;;19.30;99.90;;;;;;5065678;28;20202;-67
2022/08/22 00:18:21;;;;;;;1.40;1.30;;;19.40;99.90;;;;;;5058171;28;20252;-68
2022/08/22 00:21:03;;;;;;;1.50;1.17;;;19.40;99.90;;;;;;5045258;28;20198;-68
2022/08/22 00:23:51;;;;;;;3.07;1.40;;;19.30;99.90;;;;;;5045144;28;20197;-68
2022/08/22 00:26:42;;;;;;;3.93;1.63;;;19.20;99.90;;;;;;5063113;28;20772;-68
2022/08/22 00:29:16;;;;;;;1.70;1.37;;;19.10;99.90;;;;;;5059640;28;20253;-67
2022/08/22 00:31:50;;;;;;;2.43;1.43;;;18.90;99.90;;;;;;5061674;28;20241;-68
2022/08/22 00:34:22;;;;;;;3.00;1.60;;;18.90;99.90;;;;;;5063514;28;20198;-68
2022/08/22 00:37:10;;;;;;;3.07;1.60;;;18.80;99.90;;;;;;5060341;28;20220;-69
2022/08/22 00:39:44;;;;;;;3.87;1.70;;;18.80;99.90;;;;;;5043055;28;20194;-69
2022/08/22 00:42:26;;;;;;;2.47;1.53;;;18.70;99.90;;;;;;5063237;28;20194;-68
2022/08/22 00:45:10;;;;;;;5.07;1.60;;;18.80;99.90;;;;;;5052539;28;20223;-69
2022/08/22 00:47:57;;;;;;;3.90;1.47;;;19.00;99.90;;;;;;5064589;28;20198;-68
2022/08/22 00:51:08;;;;;;;1.90;1.57;;;18.90;99.90;;;;;;5063340;28;20194;-68
2022/08/22 00:53:51;;;;;;;2.57;1.40;;;18.80;99.90;;;;;;5067837;28;20216;-68
2022/08/22 00:56:55;;;;;;;1.90;1.50;;;18.70;99.90;;;;;;5067974;28;20249;-69
2022/08/22 00:59:51;;;;;;;3.27;1.70;;;18.70;99.90;;;;;;5039727;28;20682;-69
2022/08/22 01:02:48;;;;;;;1.97;1.47;;;18.70;99.90;;;;;;5037655;28;20195;-68
2022/08/22 01:05:43;;;;;;;1.97;1.30;;;18.70;99.90;;;;;;5062494;28;20562;-68
2022/08/22 01:08:25;;;;;;;3.50;1.60;;;18.70;99.90;;;;;;5062603;28;20663;-69
2022/08/22 01:10:57;;;;;;;1.80;1.40;;;18.70;99.90;;;;;;5062658;28;20240;-68
2022/08/22 01:13:46;;;;;;;2.13;1.60;;;18.70;99.90;;;;;;5062684;28;20619;-69
2022/08/22 01:16:34;;;;;;;2.63;1.70;;;18.70;99.90;;;;;;5063976;28;20222;-68
2022/08/22 01:19:19;;;;;;;4.63;1.90;;;18.90;99.90;;;;;;5062586;28;20202;-67
2022/08/22 01:21:52;;;;;;;4.13;1.40;;;18.90;99.90;;;;;;5064541;28;20199;-68
2022/08/22 01:25:17;;;;;;;2.13;1.60;;;18.90;99.90;;;;;;5065797;28;20224;-67
2022/08/22 01:28:25;;;;;;;3.17;1.83;;;18.90;99.90;;;;;;5047206;28;20661;-68
2022/08/22 01:31:41;;;;;;;1.80;1.50;;;19.00;99.90;;;;;;5063198;28;20198;-68
2022/08/22 01:34:17;;;;;;;3.33;1.50;;;19.20;99.90;;;;;;5061889;28;20709;-68
2022/08/22 01:37:08;;;;;;;1.90;1.60;;;19.10;99.90;;;;;;5051278;28;20271;-69
2022/08/22 01:39:57;;;;;;;1.97;1.63;;;19.30;99.90;;;;;;5062959;28;20682;-68
2022/08/22 01:42:54;;;;;;;2.30;1.60;;;19.30;99.90;;;;;;5065175;28;20285;-68
2022/08/22 01:45:40;;;;;;;3.70;1.70;;;19.40;99.90;;;;;;5064894;28;20214;-68
2022/08/22 01:48:18;;;;;;;3.17;1.70;;;19.40;99.90;;;;;;5065191;28;20194;-69
2022/08/22 01:51:15;;;;;;;1.93;1.60;;;19.30;99.90;;;;;;5045969;28;20196;-69
2022/08/22 01:53:52;;;;;;;3.13;1.73;;;19.10;99.90;;;;;;5027379;28;20248;-69
2022/08/22 01:56:21;;;;;;;4.13;1.70;;;19.10;99.90;;;;;;5063853;28;20287;-69
2022/08/22 01:59:16;;;;;;;2.90;1.50;;;19.00;99.90;;;;;;5062951;28;20194;-68
2022/08/22 02:01:51;;;;;;;4.13;1.83;;;19.00;99.90;;;;;;5055568;28;20199;-69
2022/08/22 02:04:38;;;;;;;2.33;1.73;;;19.10;99.90;;;;;;5052156;28;20291;-69
2022/08/22 02:07:27;;;;;;;2.60;1.70;;;19.20;99.90;;;;;;5051977;28;20578;-69
2022/08/22 02:10:12;;;;;;;1.80;1.60;;;19.10;99.90;;;;;;5052527;28;20191;-68
2022/08/22 02:12:46;;;;;;;2.50;1.57;;;19.20;99.90;;;;;;5052486;28;20198;-68
2022/08/22 02:15:29;;;;;;;4.33;1.80;;;19.10;99.90;;;;;;5052366;28;20297;-68
2022/08/22 02:18:16;;;;;;;2.80;1.70;;;19.10;99.90;;;;;;5052060;28;20215;-69
2022/08/22 02:21:01;;;;;;;3.87;1.60;;;19.00;99.90;;;;;;5052069;28;20198;-68
2022/08/22 02:23:55;;;;;;;4.10;1.70;;;18.90;99.90;;;;;;5055572;28;20655;-68
2022/08/22 02:26:45;;;;;;;2.43;1.60;;;18.80;99.90;;;;;;5038227;28;20221;-69
2022/08/22 02:29:20;;;;;;;3.03;1.77;;;18.80;99.90;;;;;;5052347;28;20201;-68
2022/08/22 02:31:55;;;;;;;2.00;1.40;;;18.80;99.90;;;;;;5052161;28;20195;-69
2022/08/22 02:34:36;;;;;;;3.33;1.70;;;18.70;99.90;;;;;;5052083;28;20202;-69
2022/08/22 02:37:14;;;;;;;2.53;1.67;;;18.70;99.90;;;;;;5051385;28;20219;-69
2022/08/22 02:40:01;;;;;;;5.50;1.80;;;18.70;99.90;;;;;;5051483;28;20202;-68
2022/08/22 02:42:42;;;;;;;2.13;1.73;;;18.60;99.90;;;;;;5052077;28;20202;-69
2022/08/22 02:45:29;;;;;;;2.40;1.50;;;18.50;99.90;;;;;;5051487;28;20226;-67
2022/08/22 02:48:31;;;;;;;4.83;1.80;;;18.50;99.90;;;;;;5051037;28;20195;-68
2022/08/22 02:51:00;;;;;;;4.00;1.80;;;18.40;99.90;;;;;;5051186;28;20670;-69
2022/08/22 02:53:35;;;;;;;5.10;1.60;;;18.40;99.90;;;;;;5051260;28;20202;-69
2022/08/22 02:56:11;;;;;;;2.73;1.80;;;18.30;99.90;;;;;;5037069;28;20221;-69
2022/08/22 02:58:53;;;;;;;2.87;1.73;;;18.40;99.90;;;;;;5053776;28;20225;-69
2022/08/22 03:01:31;;;;;;;3.57;1.70;;;18.30;99.90;;;;;;5071484;28;20201;-68
2022/08/22 03:04:31;;;;;;;5.20;1.73;;;18.20;99.90;;;;;;5053996;28;20194;-68
2022/08/22 03:07:19;;;;;;;2.83;1.53;;;18.10;99.90;;;;;;5050542;28;20714;-69
2022/08/22 03:10:17;;;;;;;2.57;1.80;;;18.00;99.90;;;;;;5050354;28;20195;-69
2022/08/22 03:13:05;;;;;;;2.43;1.87;;;18.00;99.90;;;;;;5050974;28;20191;-68
2022/08/22 03:15:38;;;;;;;2.40;1.90;;;18.00;99.90;;;;;;5050980;28;20575;-68
2022/08/22 03:18:47;;;;;;;2.30;1.80;;;18.10;99.90;;;;;;5050922;28;20257;-68
2022/08/22 03:21:20;;;;;;;2.60;1.93;;;18.20;99.90;;;;;;5050693;28;20209;-68
2022/08/22 03:23:58;;;;;;;3.53;2.00;;;18.20;99.90;;;;;;5050768;28;20206;-68
2022/08/22 03:26:29;;;;;;;2.27;1.90;;;18.10;99.90;;;;;;5050415;28;20223;-68
2022/08/22 03:29:03;;;;;;;3.17;1.93;;;18.00;99.90;;;;;;5050567;28;20211;-68
2022/08/22 03:31:31;;;;;;;3.23;2.00;;;18.00;99.90;;;;;;5050744;28;20229;-68
2022/08/22 03:34:21;;;;;;;3.60;2.10;;;17.80;99.90;;;;;;5032570;28;20202;-68
2022/08/22 03:37:17;;;;;;;3.10;2.10;;;17.80;99.90;;;;;;5050378;28;20211;-68
2022/08/22 03:39:58;;;;;;;3.83;1.90;;;17.80;99.90;;;;;;5050633;28;20195;-68
2022/08/22 03:42:43;;;;;;;3.23;2.00;;;17.70;99.90;;;;;;5050802;28;20191;-69
2022/08/22 03:45:37;;;;;;;4.00;2.30;;;17.60;99.90;;;;;;5050569;28;20219;-68
2022/08/22 03:48:37;;;;;;;3.93;2.30;;;17.50;99.90;;;;;;5050579;28;20202;-68
2022/08/22 03:51:21;;;;;;;3.97;2.13;;;17.40;99.90;;;;;;5050681;28;20191;-68
2022/08/22 03:54:20;;;;;;;2.97;1.90;;;17.60;99.90;;;;;;5050437;28;20269;-68
2022/08/22 03:57:43;;;;;;;3.27;2.13;;;17.60;99.90;;;;;;5049712;28;20717;-68
2022/08/22 04:00:44;;;;;;;5.73;2.70;;;17.80;99.90;;;;;;4962701;28;20351;-68
2022/08/22 04:03:49;;;;;;;5.00;2.30;;;17.80;99.90;;;;;;5066507;28;20472;-68
2022/08/22 04:06:48;;;;;;;7.97;2.60;;;17.70;99.90;;;;;;5049921;28;20276;-68
2022/08/22 04:09:26;;;;;;;5.33;2.57;;;17.70;99.90;;;;;;5050035;28;20202;-68
2022/08/22 04:12:16;;;;;;;3.47;2.53;;;17.60;99.90;;;;;;5049948;28;20248;-68
2022/08/22 04:15:07;;;;;;;5.03;2.70;;;17.60;99.90;;;;;;5048895;28;20578;-68
2022/08/22 04:18:05;;;;;;;4.83;2.90;;;17.40;99.90;;;;;;5049925;28;20223;-68
2022/08/22 04:20:53;;;;;;;3.87;2.60;;;17.20;99.90;;;;;;5053179;28;20237;-68
2022/08/22 04:23:45;;;;;;;4.63;2.80;;;17.10;99.90;;;;;;5054074;28;20229;-68
2022/08/22 04:26:15;;;;;;;5.17;2.60;;;17.00;99.90;;;;;;5054109;28;20218;-68
2022/08/22 04:28:56;;;;;;;5.17;2.47;;;17.00;99.90;;;;;;5053920;28;20202;-68
2022/08/22 04:31:32;;;;;;;3.73;2.30;;;17.00;99.90;;;;;;5054251;28;20191;-69
2022/08/22 04:34:36;;;;;;;6.73;2.63;;;17.10;99.90;;;;;;5053875;28;20191;-68
2022/08/22 04:37:13;;;;;;;3.60;2.43;;;17.20;99.90;;;;;;5010677;28;20702;-68
2022/08/22 04:39:58;;;;;;;3.37;2.40;;;17.10;99.90;;;;;;5054056;28;20202;-68
2022/08/22 04:42:40;;;;;;;7.93;2.50;;;17.00;99.90;;;;;;5054348;28;20249;-68
2022/08/22 04:45:21;;;;;;;4.90;2.93;;;17.00;99.90;;;;;;5054033;28;20253;-68
2022/08/22 04:48:14;;;;;;;3.80;2.30;;;17.00;99.90;;;;;;5060963;28;20199;-68
2022/08/22 04:51:02;;;;;;;3.57;2.10;;;17.00;99.90;;;;;;5043135;28;20195;-69
2022/08/22 04:53:52;;;;;;;4.67;2.53;;;17.00;99.90;;;;;;5053977;28;20230;-68
2022/08/22 04:57:00;;;;;;;3.83;2.43;;;17.10;99.90;;;;;;5053457;28;20226;-68
2022/08/22 04:59:29;;;;;;;7.33;2.50;;;17.20;99.90;;;;;;5054079;28;20670;-68
2022/08/22 05:02:05;;;;;;;4.03;2.40;;;17.40;99.90;;;;;;5054099;28;20226;-68
2022/08/22 05:04:41;;;;;;;3.87;2.60;;;17.40;99.90;;;;;;5053878;28;20203;-68
2022/08/22 05:07:21;;;;;;;4.33;2.50;;;17.40;99.90;;;;;;5054015;28;20597;-68
2022/08/22 05:09:55;;;;;;;4.30;2.83;;;17.50;99.90;;;;;;5054209;28;20250;-68
2022/08/22 05:12:30;;;;;;;4.33;2.60;;;17.60;99.90;;;;;;5054253;28;20202;-68
2022/08/22 05:15:06;;;;;;;5.63;2.57;;;17.80;99.90;;;;;;5054926;28;20187;-69
2022/08/22 05:17:37;;;;;;;3.60;2.43;;;17.90;99.90;;;;;;5054611;28;20475;-68
2022/08/22 05:20:10;;;;;;;3.83;2.40;;;18.10;99.90;;;;;;5053814;28;20206;-69
2022/08/22 05:22:45;;;;;;;4.33;2.60;;;18.30;99.90;;;;;;5054698;28;20618;-68
2022/08/22 05:25:25;;;;;;;4.60;2.90;;;18.40;99.90;;;;;;5055095;28;20218;-68
2022/08/22 05:28:02;;;;;;;7.37;2.60;;;18.40;99.90;;;;;;5054576;28;20369;-67
2022/08/22 05:30:32;;;;;;;5.83;2.17;;;18.40;99.90;;;;;;5053050;28;20711;-69
2022/08/22 05:33:02;;;;;;;6.97;2.97;;;18.30;99.90;;;;;;5054957;28;20195;-69
2022/08/22 05:35:56;;;;;;;3.73;2.47;;;18.40;99.90;;;;;;5053780;28;20266;-68
2022/08/22 05:38:30;;;;;;;2.93;2.20;;;18.60;99.90;;;;;;5053502;28;20229;-68
2022/08/22 05:41:12;;;;;;;5.00;2.60;;;18.80;99.90;;;;;;5053155;28;20894;-67
2022/08/22 05:43:41;;;;;;;4.47;2.50;;;18.90;99.90;;;;;;5052877;28;20426;-68
2022/08/22 05:46:19;;;;;;;7.10;2.47;;;18.90;99.90;;;;;;5052686;28;20225;-69
2022/08/22 05:48:57;;;;;;;8.03;2.50;;;19.00;99.90;;;;;;5052848;28;20195;-69
2022/08/22 05:51:47;;;;;;;4.53;2.60;;;18.90;99.90;;;;;;5052672;28;20701;-68
2022/08/22 05:54:19;;;;;;;2.43;2.13;;;18.90;99.90;;;;;;5052885;28;20198;-68
2022/08/22 05:57:24;;;;;;;5.50;2.40;;;18.90;99.90;;;;;;5052682;28;20226;-68
2022/08/22 06:00:11;;;;;;;5.27;2.20;;;19.00;99.90;;;;;;5054196;28;20278;-69
2022/08/22 06:03:15;;;;;;;5.17;2.20;;;19.10;99.90;;;;;;5056229;28;20221;-69
2022/08/22 06:05:48;;;;;;;5.57;2.33;;;19.20;99.90;;;;;;5057057;28;20225;-69
2022/08/22 06:08:33;;;;;;;4.70;2.47;;;19.30;99.90;;;;;;5052943;28;20194;-69
2022/08/22 06:11:11;;;;;;;4.87;2.50;;;19.30;99.90;;;;;;5059086;28;20200;-67
2022/08/22 06:13:42;;;;;;;5.70;2.73;;;19.60;99.90;;;;;;5034766;28;20694;-69
2022/08/22 06:16:19;;;;;;;4.97;2.37;;;19.70;99.90;;;;;;5051798;28;20666;-67
2022/08/22 06:18:48;;;;;;;6.63;2.23;;;19.80;99.90;;;;;;5054096;28;20264;-68
2022/08/22 06:21:31;;;;;;;2.90;2.00;;;19.70;99.90;;;;;;5052534;28;20199;-68
2022/08/22 06:24:11;;;;;;;3.13;2.27;;;19.80;99.90;;;;;;5035414;28;20201;-69
2022/08/22 06:26:43;;;;;;;4.10;2.40;;;19.90;99.90;;;;;;5051478;28;20300;-68
2022/08/22 06:29:48;;;;;;;3.90;2.40;;;20.00;99.90;;;;;;5052181;28;20222;-68
2022/08/22 06:32:21;;;;;;;6.07;2.53;;;20.10;99.90;;;;;;5051415;28;20195;-69
2022/08/22 06:35:14;;;;;;;5.47;2.50;;;20.20;99.90;;;;;;5051475;28;20206;-67
2022/08/22 06:37:44;;;;;;;7.00;2.83;;;20.40;99.90;;;;;;5051615;28;20633;-69
2022/08/22 06:40:15;;;;;;;12.37;2.67;;;20.50;99.90;;;;;;5034100;28;20194;-68
2022/08/22 06:42:45;;;;;;;6.10;2.30;;;20.70;99.90;;;;;;5051126;28;20199;-68
2022/08/22 06:45:22;;;;;;;6.87;2.60;;;20.80;99.90;;;;;;5051036;28;20241;-69
2022/08/22 06:48:10;;;;;;;4.97;2.60;;;20.90;99.90;;;;;;5051034;28;20750;-69
2022/08/22 06:50:42;;;;;;;8.98;2.95;;;21.10;99.90;;;;;;5051345;28;20199;-68
2022/08/22 06:53:18;;;;;;;5.38;2.85;;;21.30;99.90;;;;;;5051136;28;20191;-68
2022/08/22 06:55:54;;;;;;;11.13;2.90;;;21.50;99.90;;;;;;5050822;28;20214;-68
2022/08/22 06:58:26;;;;;;;7.97;3.45;;;21.60;99.90;;;;;;5051260;28;20228;-69
2022/08/22 07:01:06;;;;;;;9.52;3.30;;;21.80;99.90;;;;;;5051326;28;20195;-69
2022/08/22 07:03:43;;;;;;;6.82;3.10;;;21.90;99.90;;;;;;5051166;28;20217;-69
2022/08/22 07:06:17;;;;;;;4.45;2.70;;;22.20;99.90;;;;;;5050539;28;20280;-69
2022/08/22 07:08:44;;;;;;;7.70;3.13;;;22.40;99.90;;;;;;5050979;28;20195;-69
2022/08/22 07:11:24;;;;;;;8.18;2.90;;;22.60;99.90;;;;;;5050718;28;20195;-69
2022/08/22 07:14:01;;;;;;;5.15;3.03;;;22.80;99.90;;;;;;5050671;28;20551;-69
2022/08/22 07:16:51;;;;;;;6.55;3.17;;;23.20;99.90;;;;;;5050876;28;20222;-69
2022/08/22 07:19:31;;;;;;;5.15;2.70;;;23.60;99.90;;;;;;5064607;28;20216;-68
2022/08/22 07:22:08;;;;;;;3.70;2.88;;;24.00;99.90;;;;;;5072799;28;20198;-67
2022/08/22 07:24:35;;;;;;;10.35;3.95;;;24.00;99.90;;;;;;5075740;28;20719;-69
2022/08/22 07:27:30;;;;;;;12.60;8.68;;;23.90;99.90;;;;;;5066104;28;20225;-69
2022/08/22 07:30:07;;;;;;;5.97;3.40;;;23.80;99.90;;;;;;5065600;28;20543;-68
2022/08/22 07:32:47;;;;;;;5.28;3.05;;;23.60;99.90;;;;;;5065748;28;20226;-68
2022/08/22 07:35:19;;;;;;;7.97;4.60;;;23.40;99.90;;;;;;5054590;28;20228;-69
2022/08/22 07:38:01;;;;;;;5.13;3.50;;;23.40;99.90;;;;;;5070614;28;20194;-69
2022/08/22 07:40:30;;;;;;;5.82;4.45;;;23.70;99.90;;;;;;5055184;28;20301;-69
2022/08/22 07:43:16;;;;;;;15.88;9.20;;;24.30;99.90;;;;;;5072140;28;20213;-67
2022/08/22 07:45:54;;;;;;;8.07;3.25;;;24.80;99.90;;;;;;5050568;28;20226;-69
2022/08/22 07:48:39;;;;;;;6.35;3.83;;;25.00;99.90;;;;;;5050687;28;20202;-69
2022/08/22 07:51:58;;;;;;;4.30;3.28;;;25.20;99.90;;;;;;5050487;28;20229;-69
2022/08/22 07:54:33;;;;;;;5.20;3.33;;;25.80;99.90;;;;;;5030307;28;20253;-69
2022/08/22 07:57:32;;;;;;;6.88;3.05;;;26.10;99.90;;;;;;5050089;28;20249;-69
2022/08/22 08:00:03;;;;;;;10.40;3.70;;;26.40;99.90;;;;;;5050287;28;20286;-69
2022/08/22 08:02:29;;;;;;;10.82;3.58;;;26.50;99.90;;;;;;5054661;28;20268;-69
2022/08/22 08:04:59;;;;;;;8.43;3.35;;;26.60;99.90;;;;;;5050890;28;20234;-69
2022/08/22 08:07:28;;;;;;;7.30;3.60;;;26.50;99.90;;;;;;5049701;28;20231;-69
2022/08/22 08:10:06;;;;;;;6.15;3.40;;;26.50;99.90;;;;;;5033262;28;20191;-69
2022/08/22 08:12:43;;;;;;;6.15;3.33;;;26.80;99.90;;;;;;5049999;28;20260;-68
2022/08/22 08:15:20;;;;;;;4.07;3.00;;;27.00;99.90;;;;;;5050273;28;20281;-69
2022/08/22 08:17:53;;;;;;;5.93;3.30;;;27.20;99.90;;;;;;5050052;28;20311;-69
2022/08/22 08:20:23;;;;;;;6.93;4.47;;;27.20;99.90;;;;;;5050096;28;20227;-71
2022/08/22 08:22:51;;;;;;;12.60;4.00;;;26.80;99.90;;;;;;5050006;28;20619;-70
2022/08/22 08:25:24;;;;;;;9.23;3.72;;;26.70;99.90;;;;;;5049979;28;20201;-69
2022/08/22 08:30:51;;;;;;;8.23;3.20;;;26.30;99.90;;;;;;5050195;28;20194;-69
2022/08/22 08:33:22;;;;;;;8.48;3.40;;;26.30;99.90;;;;;;5049983;28;20194;-70
2022/08/22 08:36:11;;;;;;;4.47;3.10;;;26.30;99.90;;;;;;5033815;28;20615;-69
2022/08/22 08:38:48;;;;;;;4.50;3.00;;;26.60;99.90;;;;;;5050215;28;20256;-69
2022/08/22 08:41:55;;;;;;;6.05;3.20;;;26.90;99.90;;;;;;5049468;28;20720;-68
2022/08/22 08:45:03;;;;;;;6.43;3.33;;;27.10;99.90;;;;;;5049456;28;20264;-69
2022/08/22 08:47:30;;;;;;;4.72;3.25;;;27.40;99.90;;;;;;5015457;28;20233;-70
2022/08/22 08:50:16;;;;;;;8.52;3.50;;;27.40;99.90;;;;;;5069319;28;20190;-69
2022/08/22 08:52:46;;;;;;;7.75;3.08;;;27.50;99.90;;;;;;5050859;28;20210;-69
2022/08/22 08:55:36;;;;;;;10.40;3.50;;;27.60;99.90;;;;;;5049503;28;20222;-70
2022/08/22 08:58:27;;;;;;;4.30;3.10;;;27.60;99.90;;;;;;5049172;28;20237;-69
2022/08/22 09:01:18;;;;;;;6.28;3.35;;;27.70;99.90;;;;;;5049440;28;20190;-70
2022/08/22 09:04:06;;;;;;;7.10;3.22;;;27.90;99.90;;;;;;5049850;28;20206;-70
2022/08/22 09:07:14;;;;;;;7.50;3.20;;;28.00;99.90;;;;;;5051920;28;20295;-70
2022/08/22 09:10:16;;;;;;;10.27;3.17;;;27.40;99.90;;;;;;5035582;28;20245;-69
2022/08/22 09:12:44;;;;;;;7.80;3.20;;;27.50;99.90;;;;;;4978141;28;20205;-69
2022/08/22 09:15:58;;;;;;;7.13;3.35;;;27.50;99.90;;;;;;5053153;28;20226;-69
2022/08/22 09:18:57;;;;;;;7.43;3.40;;;27.20;99.90;;;;;;5053216;28;20630;-69
2022/08/22 09:22:02;;;;;;;11.30;3.85;;;27.10;99.90;;;;;;5053187;28;20191;-69
2022/08/22 09:25:10;;;;;;;8.05;3.20;;;27.20;99.90;;;;;;5053854;28;20724;-70
2022/08/22 09:27:46;;;;;;;6.78;3.08;;;27.30;99.90;;;;;;5068577;28;20218;-70
2022/08/22 09:30:18;;;;;;;5.55;3.33;;;27.30;99.90;;;;;;5039054;28;20193;-69
2022/08/22 09:33:00;;;;;;;8.32;3.42;;;27.50;99.90;;;;;;5053413;28;20195;-69
2022/08/22 09:35:51;;;;;;;9.70;3.75;;;27.50;99.90;;;;;;5065770;28;20228;-70
2022/08/22 09:38:22;;;;;;;8.52;3.30;;;27.50;99.90;;;;;;5072712;28;20285;-70
2022/08/22 09:41:05;;;;;;;7.18;3.50;;;27.40;99.90;;;;;;5062397;28;20505;-69
2022/08/22 09:44:03;;;;;;;5.78;3.58;;;27.60;99.90;;;;;;5053343;28;20194;-70
2022/08/22 09:46:51;;;;;;;6.68;3.35;;;27.70;99.90;;;;;;5068881;28;20240;-69
2022/08/22 09:49:31;;;;;;;8.75;3.28;;;27.80;99.90;;;;;;5055747;28;20202;-69
2022/08/22 09:52:27;;;;;;;6.97;3.75;;;28.00;99.90;;;;;;5073341;28;20197;-70
2022/08/22 09:55:08;;;;;;;5.07;3.50;;;28.10;99.90;;;;;;5034212;28;20260;-68
2022/08/22 09:58:18;;;;;;;6.45;3.22;;;28.20;99.90;;;;;;5058567;28;20577;-69
2022/08/22 10:01:02;;;;;;;4.72;3.53;;;28.40;99.90;;;;;;5061093;28;20340;-69
2022/08/22 10:03:44;;;;;;;4.47;3.30;;;28.50;99.90;;;;;;5052621;28;20217;-70
2022/08/22 10:06:19;;;;;;;5.03;3.65;;;28.80;99.90;;;;;;5052293;28;20245;-70
2022/08/22 10:09:08;;;;;;;5.78;3.35;;;28.90;99.90;;;;;;5052647;28;20191;-69
2022/08/22 10:12:02;;;;;;;5.55;3.72;;;29.00;99.90;;;;;;5052811;28;20237;-69
2022/08/22 10:15:03;;;;;;;5.25;3.95;;;29.00;99.90;;;;;;5052825;28;20667;-69
2022/08/22 10:17:45;;;;;;;7.63;3.78;;;29.10;99.90;;;;;;5051827;28;20262;-69
2022/08/22 10:20:34;;;;;;;5.75;3.60;;;29.20;99.90;;;;;;5045031;28;20201;-69
2022/08/22 10:23:34;;;;;;;4.63;3.65;;;29.30;99.90;;;;;;5052872;28;20833;-70
2022/08/22 10:26:50;;;;;;;4.57;3.42;;;29.40;99.90;;;;;;5052070;28;20219;-70
2022/08/22 10:29:38;;;;;;;4.47;3.70;;;29.50;99.90;;;;;;4989584;28;20196;-70
2022/08/22 10:32:51;;;;;;;4.32;3.60;;;29.70;99.90;;;;;;4987692;28;20189;-70
2022/08/22 10:35:31;;;;;;;4.85;3.47;;;29.80;99.90;;;;;;5005678;28;20590;-69
2022/08/22 10:38:10;;;;;;;4.03;3.63;;;29.80;99.90;;;;;;5010537;28;20196;-69
2022/08/22 10:40:48;;;;;;;5.07;3.60;;;29.80;99.90;;;;;;5065155;28;20178;-70
2022/08/22 10:43:22;;;;;;;6.35;4.10;;;29.90;99.90;;;;;;5072205;28;20195;-69
2022/08/22 10:46:06;;;;;;;4.63;3.72;;;30.00;99.90;;;;;;5053847;28;20218;-69
2022/08/22 10:48:49;;;;;;;5.45;3.85;;;30.10;99.90;;;;;;5052319;28;20244;-70
2022/08/22 10:51:54;;;;;;;3.72;3.33;;;30.10;99.90;;;;;;5052032;28;20191;-69
2022/08/22 10:54:26;;;;;;;3.47;3.17;;;30.30;99.90;;;;;;4996439;28;20194;-69
2022/08/22 10:57:06;;;;;;;5.45;3.70;;;30.30;99.40;;;;;;5071863;28;20601;-69
2022/08/22 10:59:54;;;;;;;4.30;3.30;;;30.40;99.50;;;;;;5051797;28;20578;-67
2022/08/22 11:02:52;;;;;;;4.10;3.25;;;30.70;98.80;;;;;;5052030;28;20202;-70
2022/08/22 11:05:26;;;;;;;4.68;3.33;;;30.70;98.90;;;;;;5051271;28;20281;-70
2022/08/22 11:08:18;;;;;;;8.65;3.30;;;31.00;98.00;;;;;;5051289;28;20215;-69
2022/08/22 11:11:00;;;;;;;5.22;3.50;;;31.00;98.20;;;;;;5051877;28;20195;-70
2022/08/22 11:13:45;;;;;;;7.18;4.03;;;31.30;97.80;;;;;;5062729;28;20689;-70
2022/08/22 11:16:23;;;;;;;4.28;3.00;;;31.50;97.20;;;;;;5037831;28;20218;-69
2022/08/22 11:19:14;;;;;;;5.50;3.05;;;31.60;97.10;;;;;;5057663;28;20247;-68
2022/08/22 11:21:52;;;;;;;4.00;3.28;;;31.80;96.90;;;;;;5051098;28;20268;-70
2022/08/22 11:24:56;;;;;;;5.07;3.22;;;32.00;96.60;;;;;;5061398;28;20194;-69
2022/08/22 11:27:43;;;;;;;4.43;2.78;;;32.30;96.00;;;;;;5062560;28;20275;-71
2022/08/22 11:30:25;;;;;;;4.15;3.10;;;32.50;94.90;;;;;;5032777;28;20191;-68
2022/08/22 11:33:13;;;;;;;4.78;3.03;;;32.70;94.60;;;;;;5050722;28;20197;-70
2022/08/22 11:35:53;;;;;;;3.58;2.90;;;32.70;94.40;;;;;;5050957;28;20702;-70
2022/08/22 11:38:33;;;;;;;4.57;2.85;;;32.80;94.70;;;;;;5051225;28;20203;-70
2022/08/22 11:41:25;;;;;;;3.80;2.90;;;33.00;94.10;;;;;;5051611;28;20255;-70
2022/08/22 11:44:05;;;;;;;4.93;3.10;;;33.10;93.40;;;;;;5051032;28;20191;-70
2022/08/22 11:46:48;;;;;;;3.13;2.80;;;33.30;93.60;;;;;;5050436;28;20778;-69
2022/08/22 11:49:36;;;;;;;4.80;2.90;;;33.50;93.20;;;;;;5051065;28;20203;-70
2022/08/22 11:52:22;;;;;;;5.30;3.10;;;33.60;93.40;;;;;;5050916;28;20194;-70
2022/08/22 11:55:03;;;;;;;4.55;2.80;;;33.90;92.40;;;;;;5051126;28;20206;-70
2022/08/22 11:57:36;;;;;;;5.55;2.80;;;34.00;91.50;;;;;;5050320;28;20301;-70
2022/08/22 12:00:28;;;;;;;4.38;2.88;;;34.10;91.20;;;;;;5050198;28;20190;-70
2022/08/22 12:03:18;;;;;;;4.80;2.40;;;34.10;91.10;;;;;;5050491;28;21192;-70
2022/08/22 12:06:12;;;;;;;4.07;2.40;;;34.30;86.90;;;;;;5050281;28;20214;-69
2022/08/22 12:09:08;;;;;;;2.83;2.53;;;33.80;88.50;;;;;;5050306;28;20215;-70
2022/08/22 12:11:52;;;;;;;4.05;2.80;;;33.10;90.70;;;;;;5050744;28;20796;-69
2022/08/22 12:14:34;;;;;;;2.88;2.40;;;32.50;91.10;;;;;;5050279;28;20555;-69
2022/08/22 12:17:33;;;;;;;5.28;2.55;;;32.60;90.70;;;;;;5032464;28;20222;-70
2022/08/22 12:20:51;;;;;;;4.72;2.95;;;32.90;91.00;;;;;;5043063;28;20263;-70
2022/08/22 12:23:42;;;;;;;3.97;2.42;;;33.30;90.30;;;;;;5070429;28;20216;-70
2022/08/22 12:26:18;;;;;;;4.03;2.53;;;33.40;89.50;;;;;;5069632;28;20224;-70
2022/08/22 12:28:53;;;;;;;8.00;2.75;;;33.60;90.20;;;;;;5070302;28;20194;-70
2022/08/22 12:31:56;;;;;;;8.43;2.70;;;33.50;90.10;;;;;;5069774;28;20280;-70
2022/08/22 12:34:39;;;;;;;3.83;2.60;;;33.30;90.40;;;;;;5052272;28;20267;-70
2022/08/22 12:37:24;;;;;;;4.50;2.60;;;33.00;90.20;;;;;;5064291;28;20222;-69
2022/08/22 12:40:02;;;;;;;5.30;2.50;;;33.00;90.30;;;;;;5049943;28;20203;-70
2022/08/22 12:42:45;;;;;;;3.67;2.50;;;33.10;90.40;;;;;;5053744;28;20747;-70
2022/08/22 12:45:31;;;;;;;3.20;2.60;;;32.70;90.80;;;;;;5035624;28;20195;-70
2022/08/22 12:48:35;;;;;;;3.28;2.17;;;32.80;91.00;;;;;;5053165;28;20217;-70
2022/08/22 12:51:35;;;;;;;4.28;2.50;;;32.80;90.20;;;;;;5053623;28;20686;-70
2022/08/22 12:54:07;;;;;;;3.47;3.10;;;32.80;90.00;;;;;;5057687;28;20205;-71
2022/08/22 12:56:55;;;;;;;4.05;2.30;;;32.80;90.00;;;;;;5054246;28;20246;-70
2022/08/22 12:59:34;;;;;;;5.03;2.80;;;32.80;89.80;;;;;;5053823;28;20563;-70
2022/08/22 13:02:30;;;;;;;5.38;2.40;;;32.80;90.10;;;;;;5053774;28;20195;-70
2022/08/22 13:05:12;;;;;;;6.47;2.70;;;32.80;89.80;;;;;;5053277;28;20256;-68
2022/08/22 13:07:53;;;;;;;3.22;2.58;;;32.60;89.10;;;;;;5047951;28;20224;-70
2022/08/22 13:10:50;;;;;;;6.75;2.92;;;32.70;90.00;;;;;;5053055;28;20194;-70
2022/08/22 13:13:55;;;;;;;4.03;2.70;;;32.50;90.30;;;;;;5053431;28;20552;-69
2022/08/22 13:16:24;;;;;;;2.90;2.30;;;32.30;90.60;;;;;;4998168;28;20211;-70
2022/08/22 13:18:55;;;;;;;3.38;2.22;;;32.40;90.30;;;;;;5038456;28;20195;-70
2022/08/22 13:21:26;;;;;;;5.20;2.30;;;32.40;90.60;;;;;;5054085;28;20234;-69
2022/08/22 13:24:19;;;;;;;6.20;2.50;;;32.50;89.90;;;;;;5054493;28;20203;-70
2022/08/22 13:26:58;;;;;;;3.75;2.40;;;32.60;88.70;;;;;;5054302;28;20268;-71
2022/08/22 13:29:37;;;;;;;3.28;2.63;;;32.80;89.80;;;;;;5038865;28;20190;-71
2022/08/22 13:32:20;;;;;;;3.15;2.40;;;33.00;90.10;;;;;;5056275;28;20237;-69
2022/08/22 13:34:55;;;;;;;3.28;2.28;;;33.20;88.40;;;;;;5054407;28;20285;-70
2022/08/22 13:37:27;;;;;;;5.70;2.72;;;33.20;87.60;;;;;;5053079;28;20272;-70
2022/08/22 13:40:00;;;;;;;3.20;2.47;;;33.20;87.60;;;;;;5053013;28;20203;-70
2022/08/22 13:42:30;;;;;;;3.72;2.47;;;33.30;86.80;;;;;;5053464;28;20206;-71
2022/08/22 13:45:03;;;;;;;2.95;2.50;;;32.90;87.90;;;;;;5053197;28;20199;-70
2022/08/22 13:47:34;;;;;;;5.07;2.55;;;32.60;87.60;;;;;;5052531;28;20219;-69
2022/08/22 13:50:12;;;;;;;4.53;2.58;;;32.60;88.20;;;;;;5052954;28;20186;-69
2022/08/22 13:52:47;;;;;;;4.63;2.75;;;32.70;88.60;;;;;;5052435;28;20187;-69
2022/08/22 13:55:27;;;;;;;2.95;2.33;;;33.00;88.20;;;;;;5052658;28;20283;-70
2022/08/22 13:58:17;;;;;;;3.55;2.42;;;33.30;87.30;;;;;;5052484;28;20214;-70
2022/08/22 14:01:04;;;;;;;5.93;3.00;;;33.30;86.90;;;;;;5052381;28;20195;-69
2022/08/22 14:03:39;;;;;;;3.40;2.40;;;33.30;87.10;;;;;;5052910;28;20202;-70
2022/08/22 14:06:29;;;;;;;5.22;2.55;;;33.30;87.50;;;;;;5052295;28;20302;-70
2022/08/22 14:09:27;;;;;;;4.72;2.70;;;33.00;87.20;;;;;;5051972;28;20597;-70
2022/08/22 14:12:25;;;;;;;3.70;2.45;;;32.80;88.00;;;;;;5035119;28;20191;-70
2022/08/22 14:15:00;;;;;;;4.05;2.65;;;32.60;88.20;;;;;;5052154;28;20217;-70
2022/08/22 14:17:34;;;;;;;3.65;2.85;;;32.30;88.10;;;;;;5060503;28;20660;-70